Time;durP1;ratioP1;P1;durP2;ratioP2;P2;SDS_P1;SDS_P2;PMS_P1;PMS_P2;Temp;Humidity;BMP_temperature;BMP_pressure;BME280_temperature;BME280_humidity;BME280_pressure;Samples;Min_cycle;Max_cycle;Signal;HPM_P1;HPM_P2
2022/09/02 00:00:59;;;;;;;0.90;0.90;;;20.20;99.90;;;;;;5041737;28;20207;-61
2022/09/02 00:03:33;;;;;;;0.87;0.87;;;20.20;99.90;;;;;;5039899;28;20575;-61
2022/09/02 00:06:01;;;;;;;0.80;0.80;;;20.20;99.90;;;;;;5044304;28;20566;-60
2022/09/02 00:08:30;;;;;;;0.90;0.90;;;20.10;99.90;;;;;;5039164;28;20319;-60
2022/09/02 00:10:59;;;;;;;0.90;0.90;;;20.10;99.90;;;;;;5041472;28;20680;-61
2022/09/02 00:13:28;;;;;;;0.70;0.70;;;20.00;99.90;;;;;;5043888;28;20270;-60
2022/09/02 00:15:55;;;;;;;0.90;0.90;;;20.00;99.90;;;;;;5040047;28;20205;-60
2022/09/02 00:18:23;;;;;;;0.83;0.83;;;20.00;99.90;;;;;;5038470;28;20200;-60
2022/09/02 00:20:53;;;;;;;0.90;0.90;;;20.00;99.90;;;;;;5058200;28;20212;-60
2022/09/02 00:23:20;;;;;;;0.80;0.80;;;19.90;99.90;;;;;;5043865;28;20247;-59
2022/09/02 00:25:47;;;;;;;0.90;0.90;;;19.90;99.90;;;;;;5035814;28;20215;-59
2022/09/02 00:28:15;;;;;;;0.80;0.80;;;19.90;99.90;;;;;;5039031;28;20205;-59
2022/09/02 00:30:44;;;;;;;0.80;0.80;;;19.80;99.90;;;;;;5038425;28;20311;-61
2022/09/02 00:33:12;;;;;;;0.80;0.80;;;19.80;99.90;;;;;;5041633;28;20208;-60
2022/09/02 00:35:39;;;;;;;0.90;0.90;;;19.80;99.90;;;;;;5033744;28;20207;-60
2022/09/02 00:38:08;;;;;;;1.00;1.00;;;19.80;99.90;;;;;;5041634;28;20211;-61
2022/09/02 00:40:35;;;;;;;0.80;0.80;;;19.80;99.90;;;;;;5037246;28;20255;-61
2022/09/02 00:43:07;;;;;;;1.17;1.05;;;19.80;99.90;;;;;;5039400;28;20239;-61
2022/09/02 00:45:34;;;;;;;0.82;0.82;;;19.80;99.90;;;;;;5036069;28;20204;-61
2022/09/02 00:48:01;;;;;;;0.80;0.80;;;19.80;99.90;;;;;;5032856;28;20253;-61
2022/09/02 00:50:31;;;;;;;0.95;0.95;;;19.80;99.90;;;;;;5039069;28;20225;-61
2022/09/02 00:53:02;;;;;;;1.30;0.90;;;19.70;99.90;;;;;;5040995;28;20351;-61
2022/09/02 00:55:34;;;;;;;0.82;0.82;;;19.70;99.90;;;;;;5032977;28;20201;-61
2022/09/02 00:58:05;;;;;;;1.00;1.00;;;19.70;99.90;;;;;;5034292;28;20218;-61
2022/09/02 01:00:36;;;;;;;0.90;0.90;;;19.70;99.90;;;;;;5034110;28;20231;-61
2022/09/02 01:03:07;;;;;;;0.90;0.90;;;19.60;99.90;;;;;;5036434;28;20595;-62
2022/09/02 01:05:37;;;;;;;1.35;1.00;;;19.60;99.90;;;;;;5038832;28;20283;-59
2022/09/02 01:08:06;;;;;;;0.70;0.70;;;19.50;99.90;;;;;;5031889;28;20200;-59
2022/09/02 01:10:35;;;;;;;0.88;0.88;;;19.50;99.90;;;;;;5031620;28;20221;-59
2022/09/02 01:13:07;;;;;;;1.43;1.00;;;19.50;99.90;;;;;;5033629;28;20671;-60
2022/09/02 01:15:36;;;;;;;0.93;0.90;;;19.40;99.90;;;;;;5041476;28;20199;-59
2022/09/02 01:18:05;;;;;;;0.80;0.80;;;19.40;99.90;;;;;;5040224;28;20201;-60
2022/09/02 01:20:32;;;;;;;0.80;0.80;;;19.40;99.90;;;;;;5035378;28;20221;-61
2022/09/02 01:23:01;;;;;;;0.90;0.90;;;19.30;99.90;;;;;;5035619;28;20903;-61
2022/09/02 01:25:30;;;;;;;0.80;0.80;;;19.30;99.90;;;;;;5034746;28;20228;-61
2022/09/02 01:27:59;;;;;;;0.70;0.70;;;19.30;99.90;;;;;;5035941;28;20200;-60
2022/09/02 01:30:27;;;;;;;0.80;0.43;;;19.20;99.90;;;;;;5033085;28;20243;-60
2022/09/02 01:32:54;;;;;;;0.70;0.70;;;19.20;99.90;;;;;;5038208;28;20232;-61
2022/09/02 01:35:22;;;;;;;0.70;0.70;;;19.10;99.90;;;;;;5037390;28;20330;-60
2022/09/02 01:37:49;;;;;;;0.60;0.60;;;19.10;99.90;;;;;;5037940;28;20259;-60
2022/09/02 01:40:18;;;;;;;0.90;0.90;;;19.10;99.90;;;;;;5036153;28;20230;-60
2022/09/02 01:42:46;;;;;;;0.73;0.73;;;19.10;99.90;;;;;;5038208;28;20224;-61
2022/09/02 01:45:14;;;;;;;0.85;0.80;;;19.10;99.90;;;;;;5035515;28;20207;-60
2022/09/02 01:47:41;;;;;;;0.80;0.80;;;19.10;99.90;;;;;;5034866;28;20201;-60
2022/09/02 01:50:09;;;;;;;0.77;0.77;;;19.10;99.90;;;;;;5034505;28;20224;-60
2022/09/02 01:52:36;;;;;;;0.70;0.70;;;19.10;99.90;;;;;;5031732;28;20192;-60
2022/09/02 01:55:04;;;;;;;0.80;0.80;;;19.00;99.90;;;;;;5034234;28;20205;-60
2022/09/02 01:57:32;;;;;;;0.70;0.70;;;19.00;99.90;;;;;;5041785;28;20258;-60
2022/09/02 02:00:00;;;;;;;0.70;0.70;;;19.00;99.90;;;;;;5049313;28;20303;-60
2022/09/02 02:02:28;;;;;;;0.80;0.80;;;19.00;99.90;;;;;;5046143;28;20235;-60
2022/09/02 02:04:54;;;;;;;0.82;0.82;;;19.00;99.90;;;;;;5048666;28;20199;-61
2022/09/02 02:07:22;;;;;;;0.80;0.80;;;19.00;99.90;;;;;;5045279;28;20209;-61
2022/09/02 02:09:49;;;;;;;0.70;0.70;;;18.90;99.90;;;;;;5051094;28;20227;-61
2022/09/02 02:12:17;;;;;;;0.90;0.90;;;18.90;99.90;;;;;;5051386;28;20196;-60
2022/09/02 02:14:45;;;;;;;0.80;0.80;;;18.90;99.90;;;;;;5051520;28;20200;-60
2022/09/02 02:17:12;;;;;;;0.80;0.80;;;18.90;99.90;;;;;;5051721;28;20684;-60
2022/09/02 02:19:39;;;;;;;0.70;0.70;;;18.90;99.90;;;;;;5051527;28;20311;-60
2022/09/02 02:22:06;;;;;;;0.80;0.80;;;18.90;99.90;;;;;;5051475;28;20219;-60
2022/09/02 02:24:33;;;;;;;0.50;0.50;;;18.90;99.90;;;;;;5051548;28;20218;-60
2022/09/02 02:27:00;;;;;;;0.50;0.50;;;18.80;99.90;;;;;;5050940;28;20240;-60
2022/09/02 02:29:27;;;;;;;0.82;0.82;;;18.80;99.90;;;;;;5045427;28;20319;-60
2022/09/02 02:31:55;;;;;;;0.68;0.68;;;18.80;99.90;;;;;;5051099;28;20654;-60
2022/09/02 02:34:22;;;;;;;0.70;0.70;;;18.80;99.90;;;;;;5051011;28;20204;-60
2022/09/02 02:36:49;;;;;;;0.70;0.70;;;18.70;99.90;;;;;;5051136;28;20622;-60
2022/09/02 02:39:16;;;;;;;0.70;0.70;;;18.70;99.90;;;;;;5051213;28;20234;-61
2022/09/02 02:41:43;;;;;;;0.60;0.60;;;18.70;99.90;;;;;;5051059;28;20298;-60
2022/09/02 02:44:10;;;;;;;0.70;0.70;;;18.70;99.90;;;;;;5050676;28;20291;-60
2022/09/02 02:46:37;;;;;;;0.60;0.60;;;18.70;99.90;;;;;;5050878;28;20204;-60
2022/09/02 02:49:06;;;;;;;0.83;0.83;;;18.70;99.90;;;;;;5052423;28;20247;-60
2022/09/02 02:51:33;;;;;;;0.63;0.63;;;18.60;99.90;;;;;;5054750;28;20210;-60
2022/09/02 02:54:00;;;;;;;0.82;0.60;;;18.60;99.90;;;;;;5054707;28;20196;-60
2022/09/02 02:56:28;;;;;;;0.63;0.63;;;18.50;99.90;;;;;;5054823;28;20196;-60
2022/09/02 02:58:55;;;;;;;0.80;0.80;;;18.50;99.90;;;;;;5055239;28;20255;-60
2022/09/02 03:01:22;;;;;;;0.80;0.80;;;18.50;99.90;;;;;;5054411;28;20674;-61
2022/09/02 03:03:50;;;;;;;0.63;0.63;;;18.40;99.90;;;;;;5054978;28;20768;-62
2022/09/02 03:06:19;;;;;;;0.75;0.75;;;18.40;99.90;;;;;;5054582;28;20295;-61
2022/09/02 03:08:47;;;;;;;0.70;0.70;;;18.40;99.90;;;;;;5055582;28;20311;-60
2022/09/02 03:11:14;;;;;;;0.60;0.60;;;18.30;99.90;;;;;;5055539;28;20215;-61
2022/09/02 03:13:41;;;;;;;0.70;0.70;;;18.30;99.90;;;;;;5054405;28;20284;-58
2022/09/02 03:16:08;;;;;;;0.68;0.68;;;18.30;99.90;;;;;;5046096;28;20638;-61
2022/09/02 03:18:35;;;;;;;0.60;0.60;;;18.30;99.90;;;;;;5054396;28;20295;-59
2022/09/02 03:21:06;;;;;;;0.90;0.90;;;18.20;99.90;;;;;;5054089;28;20208;-61
2022/09/02 03:23:34;;;;;;;0.77;0.77;;;18.10;99.90;;;;;;5054066;28;20227;-61
2022/09/02 03:26:01;;;;;;;0.70;0.70;;;18.00;99.90;;;;;;5053801;28;20710;-61
2022/09/02 03:28:28;;;;;;;0.90;0.90;;;18.00;99.90;;;;;;5053562;28;20211;-61
2022/09/02 03:30:55;;;;;;;0.70;0.70;;;17.90;99.90;;;;;;5054124;28;20208;-61
2022/09/02 03:33:22;;;;;;;0.80;0.80;;;17.90;99.90;;;;;;5054244;28;20218;-61
2022/09/02 03:35:49;;;;;;;0.80;0.80;;;17.80;99.90;;;;;;5050172;28;20283;-60
2022/09/02 03:38:16;;;;;;;0.67;0.67;;;17.80;99.90;;;;;;5050395;28;20206;-60
2022/09/02 03:40:44;;;;;;;0.70;0.70;;;17.70;99.90;;;;;;5046646;28;20650;-60
2022/09/02 03:43:11;;;;;;;0.80;0.80;;;17.70;99.90;;;;;;5048800;28;20220;-60
2022/09/02 03:45:40;;;;;;;0.70;0.70;;;17.70;99.90;;;;;;5050777;28;20644;-61
2022/09/02 03:48:08;;;;;;;0.70;0.70;;;17.70;99.90;;;;;;5052817;28;20618;-60
2022/09/02 03:50:38;;;;;;;0.60;0.60;;;17.60;99.90;;;;;;5053710;28;20666;-61
2022/09/02 03:53:06;;;;;;;0.60;0.60;;;17.60;99.90;;;;;;5054426;28;20287;-61
2022/09/02 03:55:35;;;;;;;0.60;0.60;;;17.60;99.90;;;;;;5056559;28;20346;-62
2022/09/02 03:58:03;;;;;;;0.70;0.70;;;17.50;99.90;;;;;;5053282;28;20212;-61
2022/09/02 04:00:32;;;;;;;0.68;0.68;;;17.50;99.90;;;;;;5053558;28;20235;-62
2022/09/02 04:03:00;;;;;;;0.60;0.60;;;17.40;99.90;;;;;;5053079;28;20223;-61
2022/09/02 04:05:27;;;;;;;0.70;0.70;;;17.30;99.90;;;;;;5053340;28;20208;-62
2022/09/02 04:07:55;;;;;;;0.43;0.43;;;17.30;99.90;;;;;;5053036;28;20776;-61
2022/09/02 04:10:22;;;;;;;0.70;0.70;;;17.30;99.90;;;;;;5053199;28;20224;-61
2022/09/02 04:12:50;;;;;;;0.70;0.70;;;17.30;99.90;;;;;;5053575;28;20287;-61
2022/09/02 04:15:19;;;;;;;0.55;0.55;;;17.30;99.90;;;;;;5054120;28;20636;-61
2022/09/02 04:17:46;;;;;;;0.70;0.70;;;17.20;99.90;;;;;;5055018;28;20203;-61
2022/09/02 04:20:14;;;;;;;0.70;0.70;;;17.20;99.90;;;;;;5054402;28;20216;-62
2022/09/02 04:22:41;;;;;;;1.13;0.90;;;17.20;99.90;;;;;;5053152;28;20330;-59
2022/09/02 04:25:09;;;;;;;1.03;1.00;;;17.30;99.90;;;;;;5053646;28;20206;-60
2022/09/02 04:27:36;;;;;;;0.97;0.97;;;17.70;99.90;;;;;;5054409;28;20263;-58
2022/09/02 04:30:04;;;;;;;0.82;0.82;;;18.00;99.90;;;;;;5054658;28;20327;-61
2022/09/02 04:32:33;;;;;;;0.70;0.70;;;18.00;99.90;;;;;;5049566;28;20200;-61
2022/09/02 04:34:59;;;;;;;0.83;0.83;;;17.90;99.90;;;;;;5053354;28;20286;-61
2022/09/02 04:37:27;;;;;;;0.80;0.80;;;17.80;99.90;;;;;;5053411;28;20207;-61
2022/09/02 04:39:54;;;;;;;0.80;0.80;;;17.60;99.90;;;;;;5053944;28;20243;-59
2022/09/02 04:42:21;;;;;;;0.90;0.90;;;17.60;99.90;;;;;;5053708;28;20287;-62
2022/09/02 04:44:47;;;;;;;0.80;0.80;;;17.60;99.90;;;;;;5048632;28;20210;-61
2022/09/02 04:47:14;;;;;;;0.73;0.70;;;17.60;99.90;;;;;;5052069;28;20200;-61
2022/09/02 04:49:43;;;;;;;0.70;0.70;;;17.50;99.90;;;;;;5051822;28;20612;-61
2022/09/02 04:52:10;;;;;;;0.70;0.70;;;17.40;99.90;;;;;;5045517;28;20231;-61
2022/09/02 04:54:37;;;;;;;0.70;0.70;;;17.30;99.90;;;;;;5053151;28;20204;-61
2022/09/02 04:57:04;;;;;;;0.70;0.70;;;17.40;99.90;;;;;;5052686;28;20207;-62
2022/09/02 04:59:31;;;;;;;0.70;0.70;;;17.40;99.90;;;;;;5053080;28;20231;-61
2022/09/02 05:01:59;;;;;;;0.60;0.60;;;17.40;99.90;;;;;;5053194;28;20231;-59
2022/09/02 05:04:25;;;;;;;0.70;0.70;;;17.40;99.90;;;;;;5052226;28;20235;-59
2022/09/02 05:06:54;;;;;;;1.10;0.70;;;17.40;99.90;;;;;;5052412;28;20595;-60
2022/09/02 05:09:21;;;;;;;0.70;0.70;;;17.40;99.90;;;;;;5053253;28;20230;-60
2022/09/02 05:11:50;;;;;;;0.80;0.80;;;17.20;99.90;;;;;;5051918;28;20238;-59
2022/09/02 05:14:18;;;;;;;0.60;0.60;;;17.20;99.90;;;;;;5052588;28;20196;-60
2022/09/02 05:16:44;;;;;;;0.60;0.60;;;17.30;99.90;;;;;;5052491;28;20200;-60
2022/09/02 05:19:12;;;;;;;0.70;0.70;;;17.30;99.90;;;;;;5052423;28;20546;-60
2022/09/02 05:21:40;;;;;;;0.75;0.75;;;17.30;99.90;;;;;;5051725;28;20257;-59
2022/09/02 05:24:08;;;;;;;0.90;0.90;;;17.20;99.90;;;;;;5043698;28;20220;-62
2022/09/02 05:26:36;;;;;;;0.73;0.73;;;17.20;99.90;;;;;;5051865;28;20240;-61
2022/09/02 05:29:05;;;;;;;0.50;0.50;;;17.30;99.90;;;;;;5051722;28;20318;-61
2022/09/02 05:31:32;;;;;;;0.80;0.80;;;17.30;99.90;;;;;;5051725;28;20208;-61
2022/09/02 05:33:59;;;;;;;0.70;0.70;;;17.30;99.90;;;;;;5051496;28;20193;-61
2022/09/02 05:36:26;;;;;;;0.80;0.80;;;17.40;99.90;;;;;;5051371;28;20741;-59
2022/09/02 05:38:53;;;;;;;0.80;0.80;;;17.40;99.90;;;;;;5051504;28;20274;-60
2022/09/02 05:41:23;;;;;;;0.70;0.70;;;17.40;99.90;;;;;;5051747;28;20294;-59
2022/09/02 05:43:50;;;;;;;0.60;0.60;;;17.50;99.90;;;;;;5051335;28;20230;-60
2022/09/02 05:46:19;;;;;;;0.90;0.90;;;17.50;99.90;;;;;;5051425;28;20694;-60
2022/09/02 05:49:06;;;;;;;1.07;0.97;;;17.50;99.90;;;;;;5051451;28;20614;-60
2022/09/02 05:51:37;;;;;;;0.70;0.70;;;17.50;99.90;;;;;;5051449;28;20208;-60
2022/09/02 05:54:04;;;;;;;0.60;0.60;;;17.50;99.90;;;;;;5051673;28;20195;-60
2022/09/02 05:56:32;;;;;;;0.67;0.67;;;17.60;99.90;;;;;;5050973;28;20736;-59
2022/09/02 05:58:59;;;;;;;1.03;0.97;;;17.60;99.90;;;;;;5051286;28;20238;-60
2022/09/02 06:01:26;;;;;;;0.57;0.57;;;17.70;99.90;;;;;;5051536;28;20218;-60
2022/09/02 06:03:54;;;;;;;0.70;0.70;;;17.80;99.90;;;;;;5051027;28;20223;-60
2022/09/02 06:06:22;;;;;;;0.60;0.60;;;17.80;99.90;;;;;;5051044;28;20203;-60
2022/09/02 06:08:50;;;;;;;0.75;0.75;;;17.90;99.90;;;;;;5051386;28;20223;-60
2022/09/02 06:11:18;;;;;;;0.70;0.70;;;17.90;99.90;;;;;;5051983;28;20199;-59
2022/09/02 06:13:47;;;;;;;0.70;0.70;;;18.10;99.90;;;;;;5048182;28;20576;-59
2022/09/02 06:16:16;;;;;;;0.90;0.90;;;18.10;99.90;;;;;;5051345;28;20200;-60
2022/09/02 06:18:43;;;;;;;0.70;0.70;;;18.20;99.90;;;;;;5051402;28;20224;-59
2022/09/02 06:21:10;;;;;;;0.80;0.80;;;18.20;99.90;;;;;;5051923;28;20196;-59
2022/09/02 06:23:38;;;;;;;1.07;0.80;;;18.20;99.90;;;;;;5052326;28;20212;-60
2022/09/02 06:26:06;;;;;;;0.73;0.73;;;18.30;99.90;;;;;;5054813;28;20330;-60
2022/09/02 06:28:33;;;;;;;0.80;0.80;;;18.40;99.90;;;;;;5054887;28;20204;-60
2022/09/02 06:31:07;;;;;;;0.60;0.60;;;18.50;99.90;;;;;;5052931;28;20674;-61
2022/09/02 06:33:34;;;;;;;0.63;0.63;;;18.60;99.90;;;;;;5054569;28;20207;-61
2022/09/02 06:36:01;;;;;;;0.60;0.60;;;18.70;99.90;;;;;;5053479;28;20753;-61
2022/09/02 06:38:27;;;;;;;0.70;0.70;;;18.80;99.90;;;;;;5054336;28;20207;-60
2022/09/02 06:40:56;;;;;;;0.77;0.77;;;19.00;99.90;;;;;;5053966;28;20311;-62
2022/09/02 06:43:23;;;;;;;0.70;0.70;;;19.00;99.90;;;;;;5054720;28;20226;-61
2022/09/02 06:45:50;;;;;;;0.90;0.90;;;19.10;99.90;;;;;;5053765;28;20204;-61
2022/09/02 06:48:18;;;;;;;1.00;0.90;;;19.20;99.90;;;;;;5047754;28;20593;-61
2022/09/02 06:50:47;;;;;;;0.90;0.80;;;19.30;99.90;;;;;;5053737;28;20223;-60
2022/09/02 06:53:16;;;;;;;0.60;0.60;;;19.40;99.90;;;;;;5053851;28;20196;-61
2022/09/02 06:55:46;;;;;;;0.60;0.60;;;19.40;99.90;;;;;;5050869;28;20659;-62
2022/09/02 06:58:14;;;;;;;0.60;0.60;;;19.30;99.90;;;;;;5051425;28;20210;-61
2022/09/02 07:00:41;;;;;;;0.70;0.70;;;19.40;99.90;;;;;;5051146;28;20220;-65
2022/09/02 07:06:08;;;;;;;0.60;0.60;;;19.50;99.90;;;;;;5055006;28;20578;-61
2022/09/02 07:08:37;;;;;;;0.90;0.90;;;19.60;99.90;;;;;;5053855;28;20284;-60
2022/09/02 07:11:04;;;;;;;0.57;0.57;;;19.70;99.90;;;;;;5054287;28;20207;-60
2022/09/02 07:13:32;;;;;;;0.60;0.60;;;19.70;99.90;;;;;;5051650;28;20203;-60
2022/09/02 07:15:59;;;;;;;0.80;0.80;;;19.80;99.90;;;;;;5056411;28;20246;-61
2022/09/02 07:18:26;;;;;;;0.60;0.60;;;19.90;99.90;;;;;;5053597;28;20204;-60
2022/09/02 07:20:54;;;;;;;0.68;0.68;;;20.00;99.90;;;;;;5053945;28;20655;-60
2022/09/02 07:23:23;;;;;;;0.80;0.80;;;20.10;99.90;;;;;;5053480;28;20255;-59
2022/09/02 07:25:49;;;;;;;0.80;0.80;;;20.30;99.90;;;;;;5056320;28;20674;-61
2022/09/02 07:28:17;;;;;;;0.70;0.70;;;20.30;99.90;;;;;;5053821;28;20285;-61
2022/09/02 07:30:44;;;;;;;0.90;0.90;;;20.30;99.90;;;;;;5055830;28;20281;-61
2022/09/02 07:33:13;;;;;;;0.90;0.90;;;20.30;99.90;;;;;;5054011;28;20600;-59
2022/09/02 07:35:40;;;;;;;0.70;0.70;;;20.40;99.90;;;;;;5055788;28;20212;-61
2022/09/02 07:38:08;;;;;;;0.80;0.80;;;20.30;99.90;;;;;;5053379;28;20299;-60
2022/09/02 07:40:37;;;;;;;0.90;0.90;;;20.40;99.90;;;;;;5053513;28;20219;-61
2022/09/02 07:43:05;;;;;;;1.40;0.77;;;20.50;99.90;;;;;;5054331;28;20595;-61
2022/09/02 07:45:32;;;;;;;1.07;0.70;;;20.60;99.90;;;;;;5053775;28;20284;-60
2022/09/02 07:47:59;;;;;;;0.70;0.70;;;20.80;99.90;;;;;;5050424;28;20215;-60
2022/09/02 07:50:26;;;;;;;0.97;0.97;;;21.00;99.90;;;;;;5056204;28;20311;-60
2022/09/02 07:52:53;;;;;;;0.80;0.80;;;21.10;99.90;;;;;;5056174;28;20199;-60
2022/09/02 07:55:21;;;;;;;0.90;0.90;;;21.30;99.90;;;;;;5056226;28;20242;-63
2022/09/02 07:57:52;;;;;;;0.90;0.90;;;21.40;99.90;;;;;;5055715;28;20207;-61
2022/09/02 08:00:19;;;;;;;0.75;0.75;;;21.20;99.90;;;;;;5053222;28;20322;-61
2022/09/02 08:02:47;;;;;;;0.80;0.80;;;21.30;99.90;;;;;;5050301;28;20390;-61
2022/09/02 08:05:14;;;;;;;0.90;0.90;;;21.40;99.90;;;;;;5054903;28;20227;-60
2022/09/02 08:07:41;;;;;;;0.70;0.70;;;21.50;99.90;;;;;;5052883;28;20222;-60
2022/09/02 08:10:11;;;;;;;0.70;0.70;;;21.80;99.90;;;;;;5052822;28;20255;-61
2022/09/02 08:12:39;;;;;;;0.68;0.68;;;22.00;99.90;;;;;;5055811;28;20689;-61
2022/09/02 08:15:09;;;;;;;0.60;0.60;;;22.30;99.90;;;;;;5052941;28;20204;-61
2022/09/02 08:17:39;;;;;;;0.70;0.70;;;22.50;99.90;;;;;;5045648;28;20219;-61
2022/09/02 08:20:07;;;;;;;0.57;0.57;;;22.80;99.90;;;;;;5047333;28;20224;-61
2022/09/02 08:22:35;;;;;;;0.65;0.65;;;22.90;99.90;;;;;;5050541;28;20502;-62
2022/09/02 08:25:02;;;;;;;0.60;0.60;;;23.20;99.90;;;;;;5052588;28;20227;-61
2022/09/02 08:27:29;;;;;;;0.60;0.60;;;23.30;99.90;;;;;;5051744;28;20214;-62
2022/09/02 08:29:55;;;;;;;1.47;0.80;;;23.30;99.90;;;;;;5052268;28;20232;-60
2022/09/02 08:32:24;;;;;;;0.95;0.95;;;23.50;99.90;;;;;;5053931;28;20203;-60
2022/09/02 08:34:50;;;;;;;0.60;0.60;;;23.60;99.90;;;;;;5052233;28;20296;-59
2022/09/02 08:37:18;;;;;;;1.35;0.73;;;23.80;99.90;;;;;;5049454;28;20203;-60
2022/09/02 08:39:45;;;;;;;0.50;0.50;;;24.00;99.90;;;;;;5058661;28;20223;-63
2022/09/02 08:42:21;;;;;;;0.60;0.60;;;23.90;99.90;;;;;;5057867;28;20220;-60
2022/09/02 08:44:50;;;;;;;0.60;0.60;;;24.20;99.90;;;;;;5048442;28;20215;-61
2022/09/02 08:47:22;;;;;;;0.45;0.45;;;24.20;99.90;;;;;;5051359;28;20214;-62
2022/09/02 08:49:54;;;;;;;1.95;0.90;;;24.30;99.90;;;;;;5055295;28;20709;-61
2022/09/02 08:52:29;;;;;;;0.75;0.68;;;24.40;99.90;;;;;;5053385;28;20200;-61
2022/09/02 08:54:56;;;;;;;0.80;0.70;;;24.50;99.90;;;;;;5047595;28;20203;-62
2022/09/02 08:57:26;;;;;;;1.17;0.60;;;24.70;99.90;;;;;;5052056;28;20306;-61
2022/09/02 08:59:54;;;;;;;1.55;0.80;;;24.70;99.90;;;;;;5051081;28;20228;-61
2022/09/02 09:02:29;;;;;;;1.65;0.77;;;24.80;99.90;;;;;;5052894;28;20348;-61
2022/09/02 09:05:19;;;;;;;1.52;0.85;;;24.90;99.90;;;;;;5049710;28;20219;-61
2022/09/02 09:07:56;;;;;;;0.68;0.68;;;24.90;99.90;;;;;;5043607;28;20295;-61
2022/09/02 09:10:29;;;;;;;0.65;0.65;;;25.10;99.90;;;;;;5040527;28;20327;-61
2022/09/02 09:13:13;;;;;;;0.80;0.80;;;25.20;99.90;;;;;;5040938;28;20545;-61
2022/09/02 09:15:48;;;;;;;0.65;0.65;;;25.40;99.90;;;;;;5046854;28;20291;-62
2022/09/02 09:18:19;;;;;;;0.80;0.80;;;25.30;99.90;;;;;;5040249;28;20200;-60
2022/09/02 09:20:47;;;;;;;0.45;0.45;;;25.20;99.90;;;;;;5043416;28;20228;-60
2022/09/02 09:23:29;;;;;;;0.98;0.95;;;25.30;99.90;;;;;;5047369;28;20654;-61
2022/09/02 09:26:05;;;;;;;1.35;0.98;;;25.40;99.90;;;;;;5048303;28;20231;-61
2022/09/02 09:28:37;;;;;;;1.15;1.10;;;25.60;99.90;;;;;;5040138;28;20214;-62
2022/09/02 09:31:05;;;;;;;1.13;0.90;;;25.60;99.90;;;;;;5039914;28;20636;-61
2022/09/02 09:33:32;;;;;;;0.70;0.70;;;25.70;99.90;;;;;;5046751;28;20295;-61
2022/09/02 09:36:02;;;;;;;2.63;0.93;;;25.90;99.90;;;;;;5041063;28;20200;-61
2022/09/02 09:38:31;;;;;;;0.60;0.60;;;25.80;99.90;;;;;;5044303;28;20204;-62
2022/09/02 09:41:20;;;;;;;0.50;0.50;;;26.00;99.90;;;;;;5041278;28;20204;-63
2022/09/02 09:43:48;;;;;;;0.70;0.70;;;26.00;99.90;;;;;;5049318;28;20282;-61
2022/09/02 09:46:27;;;;;;;0.70;0.70;;;26.20;99.90;;;;;;5048550;28;20227;-62
2022/09/02 09:48:54;;;;;;;0.70;0.70;;;26.10;99.90;;;;;;5051263;28;20254;-62
2022/09/02 09:51:22;;;;;;;0.70;0.70;;;26.30;99.90;;;;;;5051381;28;20204;-63
2022/09/02 09:53:50;;;;;;;0.63;0.63;;;26.40;99.90;;;;;;5051040;28;20214;-61
2022/09/02 09:56:31;;;;;;;0.77;0.77;;;26.60;99.90;;;;;;5051067;28;20200;-61
2022/09/02 09:58:58;;;;;;;0.57;0.57;;;26.60;99.90;;;;;;5051173;28;20779;-63
2022/09/02 10:01:28;;;;;;;0.68;0.68;;;26.70;99.90;;;;;;5050973;28;20208;-61
2022/09/02 10:03:57;;;;;;;0.60;0.60;;;26.80;99.90;;;;;;5051313;28;20211;-63
2022/09/02 10:06:37;;;;;;;0.70;0.70;;;26.80;99.90;;;;;;5050488;28;20204;-62
2022/09/02 10:09:07;;;;;;;0.70;0.70;;;26.90;99.90;;;;;;5051543;28;20254;-62
2022/09/02 10:11:36;;;;;;;0.43;0.43;;;26.90;99.90;;;;;;5051386;28;20579;-62
2022/09/02 10:14:06;;;;;;;0.50;0.50;;;27.10;99.90;;;;;;5051049;28;20200;-62
2022/09/02 10:16:48;;;;;;;0.50;0.50;;;27.20;99.90;;;;;;5050816;28;20206;-62
2022/09/02 10:19:26;;;;;;;0.65;0.65;;;27.20;99.90;;;;;;5044311;28;20307;-61
2022/09/02 10:22:15;;;;;;;0.70;0.60;;;27.20;99.90;;;;;;5051065;28;20677;-63
2022/09/02 10:25:00;;;;;;;0.52;0.52;;;27.30;99.90;;;;;;5051750;28;20227;-61
2022/09/02 10:27:36;;;;;;;0.43;0.43;;;27.20;99.90;;;;;;5045052;28;20737;-61
2022/09/02 10:30:19;;;;;;;0.88;0.70;;;27.20;99.90;;;;;;5051560;28;20234;-62
2022/09/02 10:33:04;;;;;;;0.80;0.80;;;27.20;99.90;;;;;;5051521;28;20204;-60
2022/09/02 10:35:40;;;;;;;0.90;0.90;;;27.20;99.90;;;;;;5050922;28;20196;-60
2022/09/02 10:38:17;;;;;;;0.70;0.70;;;27.30;99.90;;;;;;5050594;28;20670;-60
2022/09/02 10:40:48;;;;;;;0.75;0.75;;;27.50;99.90;;;;;;5051148;28;20306;-60
2022/09/02 10:43:31;;;;;;;0.60;0.60;;;27.60;99.90;;;;;;5051583;28;20748;-61
2022/09/02 10:46:00;;;;;;;0.60;0.60;;;27.80;99.90;;;;;;5050143;28;20216;-61
2022/09/02 10:48:45;;;;;;;0.70;0.50;;;27.70;99.90;;;;;;5050864;28;20722;-62
2022/09/02 10:51:20;;;;;;;0.50;0.50;;;27.90;99.90;;;;;;5050795;28;20256;-61
2022/09/02 10:54:09;;;;;;;0.50;0.50;;;27.90;99.90;;;;;;5051205;28;20285;-61
2022/09/02 10:56:43;;;;;;;0.50;0.50;;;28.00;99.90;;;;;;5050348;28;20937;-62
2022/09/02 10:59:16;;;;;;;0.50;0.50;;;28.00;99.90;;;;;;5043449;28;20259;-61
2022/09/02 11:01:48;;;;;;;0.60;0.60;;;28.00;99.90;;;;;;5051153;28;20224;-62
2022/09/02 11:04:21;;;;;;;0.50;0.50;;;28.00;99.90;;;;;;5051443;28;20659;-62
2022/09/02 11:06:51;;;;;;;0.52;0.52;;;28.00;99.90;;;;;;5050664;28;20204;-62
2022/09/02 11:09:29;;;;;;;2.20;0.85;;;27.90;99.40;;;;;;5051507;28;20605;-62
2022/09/02 11:12:02;;;;;;;0.80;0.60;;;27.90;99.60;;;;;;5049973;28;20208;-62
2022/09/02 11:14:33;;;;;;;1.02;0.70;;;28.00;99.60;;;;;;5051066;28;20225;-62
2022/09/02 11:17:07;;;;;;;0.50;0.50;;;28.20;99.30;;;;;;5054208;28;20210;-61
2022/09/02 11:19:38;;;;;;;0.70;0.70;;;28.20;99.10;;;;;;5054719;28;20235;-61
2022/09/02 11:22:18;;;;;;;0.52;0.52;;;28.20;98.40;;;;;;5056134;28;20227;-62
2022/09/02 11:24:52;;;;;;;0.68;0.50;;;28.30;98.90;;;;;;5059410;28;20311;-62
2022/09/02 11:27:30;;;;;;;0.73;0.73;;;28.30;99.00;;;;;;5052444;28;20235;-60
2022/09/02 11:30:02;;;;;;;0.32;0.32;;;28.30;98.60;;;;;;5053978;28;20293;-61
2022/09/02 11:32:37;;;;;;;0.55;0.55;;;28.30;98.80;;;;;;5056632;28;20678;-62
2022/09/02 11:35:09;;;;;;;0.75;0.75;;;28.40;99.10;;;;;;5054509;28;20211;-61
2022/09/02 11:37:42;;;;;;;0.52;0.52;;;28.40;99.10;;;;;;5054924;28;20208;-61
2022/09/02 11:40:17;;;;;;;0.80;0.80;;;28.50;98.60;;;;;;5054237;28;20220;-61
2022/09/02 11:43:03;;;;;;;0.65;0.65;;;28.50;98.40;;;;;;5043050;28;20204;-61
2022/09/02 11:45:48;;;;;;;0.50;0.50;;;28.60;99.20;;;;;;5050876;28;20230;-61
2022/09/02 11:48:52;;;;;;;0.50;0.50;;;28.70;99.10;;;;;;5048307;28;20207;-61
2022/09/02 11:51:54;;;;;;;0.60;0.60;;;28.80;99.20;;;;;;5044084;28;20210;-61
2022/09/02 11:54:23;;;;;;;0.52;0.52;;;28.90;98.00;;;;;;5044968;28;20208;-62
2022/09/02 11:56:57;;;;;;;0.40;0.40;;;28.80;97.60;;;;;;5052578;28;20200;-62
2022/09/02 12:00:03;;;;;;;0.60;0.60;;;28.70;96.70;;;;;;5044064;28;20311;-63
2022/09/02 12:02:37;;;;;;;0.60;0.60;;;28.30;97.40;;;;;;5050963;28;20287;-61
2022/09/02 12:05:41;;;;;;;0.50;0.50;;;28.30;97.40;;;;;;5050654;28;20275;-61
2022/09/02 12:08:12;;;;;;;0.57;0.57;;;28.40;97.80;;;;;;5052402;28;20200;-62
2022/09/02 12:10:59;;;;;;;0.70;0.70;;;28.70;97.60;;;;;;5060157;28;20310;-62
2022/09/02 12:13:36;;;;;;;0.50;0.50;;;28.70;96.10;;;;;;5056666;28;20250;-62
2022/09/02 12:16:36;;;;;;;0.60;0.60;;;28.80;96.80;;;;;;5052038;28;20211;-62
2022/09/02 12:19:28;;;;;;;0.65;0.65;;;28.90;96.60;;;;;;5052090;28;20220;-62
2022/09/02 12:22:27;;;;;;;0.50;0.50;;;28.70;96.50;;;;;;5042955;28;20238;-61
2022/09/02 12:24:55;;;;;;;0.65;0.65;;;28.80;96.10;;;;;;4980831;28;20226;-62
2022/09/02 12:27:31;;;;;;;0.55;0.55;;;28.80;96.50;;;;;;5027465;28;20208;-63
2022/09/02 12:30:00;;;;;;;0.60;0.60;;;28.80;95.60;;;;;;5036468;28;20224;-62
2022/09/02 12:33:11;;;;;;;0.73;0.73;;;28.90;95.70;;;;;;5048860;28;20204;-59
2022/09/02 12:35:52;;;;;;;0.50;0.50;;;28.90;95.10;;;;;;5042974;28;20197;-61
2022/09/02 12:38:38;;;;;;;0.30;0.30;;;29.00;95.60;;;;;;5045928;28;20209;-63
2022/09/02 12:41:26;;;;;;;0.55;0.55;;;29.20;95.90;;;;;;5042285;28;20211;-59
2022/09/02 12:44:02;;;;;;;0.50;0.50;;;29.20;95.60;;;;;;5041782;28;20317;-63
2022/09/02 12:47:07;;;;;;;0.50;0.50;;;29.30;96.30;;;;;;5041536;28;20600;-63
2022/09/02 12:49:41;;;;;;;0.50;0.50;;;29.20;95.10;;;;;;5009090;28;20225;-62
2022/09/02 12:52:10;;;;;;;0.57;0.57;;;29.10;95.20;;;;;;5046366;28;20201;-60
2022/09/02 12:54:46;;;;;;;0.43;0.43;;;29.00;95.50;;;;;;5052223;28;20729;-62
2022/09/02 12:57:15;;;;;;;0.57;0.57;;;29.00;96.30;;;;;;5046499;28;20207;-62
2022/09/02 12:59:42;;;;;;;0.43;0.43;;;29.20;96.00;;;;;;5054149;28;20226;-61
2022/09/02 13:02:39;;;;;;;0.60;0.60;;;29.20;95.10;;;;;;5049671;28;20196;-61
2022/09/02 13:05:24;;;;;;;0.60;0.60;;;29.20;94.60;;;;;;5052592;28;20224;-62
2022/09/02 13:08:38;;;;;;;0.60;0.60;;;29.40;95.20;;;;;;5048574;28;20291;-61
2022/09/02 13:11:32;;;;;;;0.70;0.60;;;29.40;94.50;;;;;;5021090;28;20235;-60